createdAt,value
2023-03-29T00:02:00.762Z,100453.66
2023-03-29T00:04:29.989Z,100443.13
2023-03-29T00:06:56.756Z,100436.97
2023-03-29T00:09:26.562Z,100446.63
2023-03-29T00:11:52.866Z,100448.41
2023-03-29T00:14:19.159Z,100435.22
2023-03-29T00:16:46.839Z,100424.69
2023-03-29T00:19:13.376Z,100424.69
2023-03-29T00:21:39.709Z,100419.41
2023-03-29T00:24:06.228Z,100417.63
2023-03-29T00:26:32.532Z,100416.75
2023-03-29T00:28:58.856Z,100397.50
2023-03-29T00:31:26.111Z,100401.78
2023-03-29T00:33:52.647Z,100400.03
2023-03-29T00:36:18.959Z,100409.69
2023-03-29T00:38:45.349Z,100404.44
2023-03-29T00:41:11.800Z,100402.66
2023-03-29T00:44:03.989Z,100395.66
2023-03-29T00:46:31.544Z,100391.25
2023-03-29T00:49:03.829Z,100388.59
2023-03-29T00:51:34.255Z,100389.47
2023-03-29T00:54:03.529Z,100375.47
2023-03-29T00:56:35.199Z,100385.09
2023-03-29T00:59:05.994Z,100374.56
2023-03-29T01:01:46.522Z,100386.00
2023-03-29T01:04:20.717Z,100385.09
2023-03-29T01:06:58.979Z,100388.59
2023-03-29T01:09:29.730Z,100391.25
2023-03-29T01:12:02.723Z,100388.59
2023-03-29T01:14:35.160Z,100380.69
2023-03-29T01:17:01.489Z,100374.50
2023-03-29T01:19:34.287Z,100367.56
2023-03-29T01:22:13.571Z,100372.84
2023-03-29T01:24:50.384Z,100371.06
2023-03-29T01:27:28.387Z,100369.34
2023-03-29T01:30:02.001Z,100372.84
2023-03-29T01:32:38.741Z,100367.56
2023-03-29T01:35:13.470Z,100370.22
2023-03-29T01:37:45.619Z,100365.84
2023-03-29T01:40:12.051Z,100353.56
2023-03-29T01:42:48.419Z,100336.94
2023-03-29T01:45:46.956Z,100341.28
2023-03-29T01:48:17.253Z,100353.56
2023-03-29T01:50:50.670Z,100347.44
2023-03-29T01:53:41.139Z,100342.22
2023-03-29T01:56:13.293Z,100336.03
2023-03-29T01:58:48.878Z,100330.78
2023-03-29T02:01:22.846Z,100324.63
2023-03-29T02:03:54.533Z,100332.56
2023-03-29T02:06:24.861Z,100332.53
2023-03-29T02:08:52.967Z,100328.16
2023-03-29T02:11:19.886Z,100313.31
2023-03-29T02:13:46.481Z,100311.50
2023-03-29T02:16:14.030Z,100298.34
2023-03-29T02:18:44.842Z,100308.03
2023-03-29T02:21:16.340Z,100309.81
2023-03-29T02:23:47.485Z,100312.47
2023-03-29T02:26:15.758Z,100301.03
2023-03-29T02:28:42.886Z,100302.81
2023-03-29T02:31:18.902Z,100297.59
2023-03-29T02:33:52.051Z,100301.91
2023-03-29T02:36:30.772Z,100294.00
2023-03-29T02:38:59.898Z,100298.41
2023-03-29T02:41:27.296Z,100299.28
2023-03-29T02:43:56.636Z,100291.41
2023-03-29T02:46:23.781Z,100287.00
2023-03-29T02:48:53.958Z,100283.50
2023-03-29T02:51:31.796Z,100268.63
2023-03-29T02:54:05.519Z,100259.13
2023-03-29T02:56:44.774Z,100263.50
2023-03-29T02:59:12.158Z,100252.22
2023-03-29T03:01:42.682Z,100266.19
2023-03-29T03:04:13.074Z,100249.63
2023-03-29T03:06:39.510Z,100257.47
2023-03-29T03:09:05.907Z,100262.69
2023-03-29T03:11:33.334Z,100246.88
2023-03-29T03:13:59.914Z,100266.13
2023-03-29T03:16:27.075Z,100255.59
2023-03-29T03:18:54.747Z,100258.22
2023-03-29T03:21:22.137Z,100252.97
2023-03-29T03:23:48.636Z,100261.72
2023-03-29T03:26:16.664Z,100259.09
2023-03-29T03:28:43.082Z,100260.84
2023-03-29T03:31:09.486Z,100259.09
2023-03-29T03:33:35.800Z,100260.84
2023-03-29T03:36:06.183Z,100245.97
2023-03-29T03:38:33.088Z,100254.72
2023-03-29T03:41:00.953Z,100245.97
2023-03-29T03:43:28.654Z,100252.97
2023-03-29T03:45:55.755Z,100257.38
2023-03-29T03:48:23.095Z,100248.59
2023-03-29T03:50:51.160Z,100242.53
2023-03-29T03:53:18.519Z,100255.66
2023-03-29T03:55:49.145Z,100249.53
2023-03-29T03:58:16.466Z,100246.09
2023-03-29T04:00:42.983Z,100260.97
2023-03-29T04:03:09.847Z,100253.97
2023-03-29T04:05:40.148Z,100253.13
2023-03-29T04:08:06.747Z,100248.78
2023-03-29T04:10:34.260Z,100240.91
2023-03-29T04:13:05.121Z,100247.94
2023-03-29T04:15:33.035Z,100243.59
2023-03-29T04:18:00.636Z,100234.88
2023-03-29T04:20:28.121Z,100241.91
2023-03-29T04:22:54.403Z,100238.38
2023-03-29T04:25:22.261Z,100242.78
2023-03-29T04:27:50.367Z,100248.91
2023-03-29T04:30:16.981Z,100239.22
2023-03-29T04:32:43.365Z,100244.50
2023-03-29T04:35:10.125Z,100248.84
2023-03-29T04:37:40.195Z,100234.88
2023-03-29T04:40:14.082Z,100243.59
2023-03-29T04:42:45.893Z,100226.97
2023-03-29T04:45:14.041Z,100244.50
2023-03-29T04:47:41.897Z,100247.13
2023-03-29T04:50:08.619Z,100239.22
2023-03-29T04:52:35.447Z,100229.59
2023-03-29T04:55:02.751Z,100234.88
2023-03-29T04:57:29.339Z,100226.97
2023-03-29T04:59:56.362Z,100237.50
2023-03-29T05:02:22.897Z,100236.63
2023-03-29T05:04:49.332Z,100247.16
2023-03-29T05:07:17.893Z,100231.31
2023-03-29T05:09:44.363Z,100239.22
2023-03-29T05:12:11.053Z,100231.31
2023-03-29T05:14:37.406Z,100235.69
2023-03-29T05:17:04.984Z,100231.28
2023-03-29T05:19:31.919Z,100231.28
2023-03-29T05:21:59.027Z,100240.03
2023-03-29T05:24:25.396Z,100237.41
2023-03-29T05:26:51.968Z,100219.00
2023-03-29T05:29:18.849Z,100228.50
2023-03-29T05:31:45.263Z,100232.84
2023-03-29T05:34:11.656Z,100217.03
2023-03-29T05:36:39.044Z,100218.72
2023-03-29T05:39:06.369Z,100216.97
2023-03-29T05:41:33.645Z,100231.78
2023-03-29T05:43:59.948Z,100226.44
2023-03-29T05:46:26.898Z,100231.66
2023-03-29T05:48:53.136Z,100230.72
2023-03-29T05:51:22.393Z,100229.75
2023-03-29T05:53:48.672Z,100230.53
2023-03-29T05:56:16.301Z,100206.94
2023-03-29T05:58:42.942Z,100233.97
2023-03-29T06:01:14.380Z,100240.97
2023-03-29T06:03:41.128Z,100232.94
2023-03-29T06:06:08.775Z,100238.22
2023-03-29T06:08:36.837Z,100234.72
2023-03-29T06:11:08.902Z,100239.94
2023-03-29T06:13:37.076Z,100250.41
2023-03-29T06:16:04.317Z,100238.84
2023-03-29T06:18:30.648Z,100235.28
2023-03-29T06:20:56.953Z,100242.28
2023-03-29T06:23:23.538Z,100232.59
2023-03-29T06:25:51.423Z,100237.06
2023-03-29T06:28:19.100Z,100239.63
2023-03-29T06:30:46.036Z,100236.94
2023-03-29T06:33:14.147Z,100246.53
2023-03-29T06:35:47.177Z,100246.53
2023-03-29T06:38:14.956Z,100247.34
2023-03-29T06:40:43.094Z,100254.28
2023-03-29T06:43:09.874Z,100251.56
2023-03-29T06:45:37.755Z,100241.81
2023-03-29T06:48:05.852Z,100231.31
2023-03-29T06:50:32.526Z,100243.56
2023-03-29T06:52:58.964Z,100239.25
2023-03-29T06:55:25.938Z,100253.22
2023-03-29T06:57:53.373Z,100250.50
2023-03-29T07:00:27.702Z,100246.16
2023-03-29T07:02:56.214Z,100252.28
2023-03-29T07:05:23.866Z,100260.28
2023-03-29T07:07:55.009Z,100248.78
2023-03-29T07:10:23.508Z,100252.22
2023-03-29T07:12:49.847Z,100248.59
2023-03-29T07:15:16.426Z,100246.66
2023-03-29T07:17:43.000Z,100245.53
2023-03-29T07:20:15.707Z,100253.34
2023-03-29T07:22:43.923Z,100244.38
2023-03-29T07:25:12.261Z,100246.00
2023-03-29T07:27:40.739Z,100249.31
2023-03-29T07:30:11.141Z,100251.78
2023-03-29T07:32:39.496Z,100263.88
2023-03-29T07:35:07.258Z,100261.84
2023-03-29T07:37:37.332Z,100266.91
2023-03-29T07:40:09.097Z,100251.78
2023-03-29T07:42:38.891Z,100268.09
2023-03-29T07:45:08.423Z,100256.41
2023-03-29T07:47:35.159Z,100273.75
2023-03-29T07:50:02.276Z,100264.75
2023-03-29T07:52:29.990Z,100251.25
2023-03-29T07:54:56.918Z,100270.00
2023-03-29T07:57:24.841Z,100273.47
2023-03-29T07:59:51.738Z,100265.50
2023-03-29T08:02:18.006Z,100274.03
2023-03-29T08:04:44.797Z,100269.59
2023-03-29T08:07:11.187Z,100281.09
2023-03-29T08:09:37.516Z,100281.81
2023-03-29T08:12:04.465Z,100278.03
2023-03-29T08:14:31.138Z,100261.31
2023-03-29T08:16:57.625Z,100273.44
2023-03-29T08:19:23.961Z,100269.91
2023-03-29T08:21:50.438Z,100275.09
2023-03-29T08:24:18.566Z,100258.22
2023-03-29T08:26:47.030Z,100272.03
2023-03-29T08:29:13.398Z,100266.56
2023-03-29T08:31:39.882Z,100229.44
2023-03-29T08:34:06.353Z,100261.47
2023-03-29T08:36:33.019Z,100241.72
2023-03-29T08:38:59.574Z,100249.28
2023-03-29T08:41:57.668Z,100254.41
2023-03-29T08:44:42.062Z,100229.13
2023-03-29T08:47:35.627Z,100244.19
2023-03-29T08:50:02.281Z,100231.38
2023-03-29T08:52:41.155Z,100251.38
2023-03-29T08:55:15.380Z,100246.19
2023-03-29T08:57:47.839Z,100242.28
2023-03-29T09:00:22.560Z,100258.06
2023-03-29T09:02:51.865Z,100253.63
2023-03-29T09:05:25.674Z,100261.25
2023-03-29T09:07:53.245Z,100255.75
2023-03-29T09:10:26.335Z,100265.63
2023-03-29T09:13:03.289Z,100269.47
2023-03-29T09:15:53.704Z,100261.00
2023-03-29T09:18:33.726Z,100264.28
2023-03-29T09:21:16.975Z,100265.41
2023-03-29T09:24:03.336Z,100262.91
2023-03-29T09:26:52.712Z,100261.06
2023-03-29T09:29:47.290Z,100264.91
2023-03-29T09:32:20.322Z,100263.59
2023-03-29T09:34:59.577Z,100263.91
2023-03-29T09:37:37.894Z,100243.75
2023-03-29T09:40:11.927Z,100250.00
2023-03-29T09:42:39.497Z,100238.47
2023-03-29T09:45:08.568Z,100242.50
2023-03-29T09:47:47.177Z,100238.66
2023-03-29T09:50:30.041Z,100245.47
2023-03-29T09:52:57.198Z,100241.25
2023-03-29T09:55:28.300Z,100245.91
2023-03-29T09:57:57.940Z,100222.56
2023-03-29T10:00:24.964Z,100240.09
2023-03-29T10:02:52.833Z,100236.91
2023-03-29T10:05:19.895Z,100241.47
2023-03-29T10:07:54.288Z,100242.59
2023-03-29T10:10:24.095Z,100236.56
2023-03-29T10:12:52.913Z,100235.78
2023-03-29T10:15:29.388Z,100235.91
2023-03-29T10:18:10.666Z,100214.31
2023-03-29T10:20:39.874Z,100233.59
2023-03-29T10:23:08.403Z,100237.31
2023-03-29T10:25:42.632Z,100231.97
2023-03-29T10:28:17.511Z,100232.81
2023-03-29T10:30:47.419Z,100229.81
2023-03-29T10:33:21.064Z,100230.22
2023-03-29T10:35:48.602Z,100215.66
2023-03-29T10:38:18.708Z,100198.44
2023-03-29T10:40:48.005Z,100197.44
2023-03-29T10:43:22.378Z,100184.31
2023-03-29T10:45:51.728Z,100196.25
2023-03-29T10:48:19.276Z,100187.94
2023-03-29T10:50:51.352Z,100175.44
2023-03-29T10:53:24.841Z,100182.47
2023-03-29T10:56:15.372Z,100178.59
2023-03-29T10:59:22.576Z,100167.81
2023-03-29T11:01:58.068Z,100180.31
2023-03-29T11:04:42.761Z,100183.31
2023-03-29T11:07:27.794Z,100168.97
2023-03-29T11:10:32.350Z,100159.09
2023-03-29T11:13:03.534Z,100167.56
2023-03-29T11:15:58.088Z,100165.25
2023-03-29T11:18:46.103Z,100173.06
2023-03-29T11:21:33.879Z,100162.81
2023-03-29T11:24:31.203Z,100161.66
2023-03-29T11:27:37.706Z,100173.25
2023-03-29T11:30:29.004Z,100164.84
2023-03-29T11:33:15.030Z,100176.75
2023-03-29T11:35:52.489Z,100174.38
2023-03-29T11:38:28.176Z,100170.38
2023-03-29T11:41:03.209Z,100177.59
2023-03-29T11:43:42.719Z,100162.53
2023-03-29T11:46:09.300Z,100168.41
2023-03-29T11:48:41.098Z,100173.81
2023-03-29T11:51:16.066Z,100167.06
2023-03-29T11:54:00.709Z,100169.47
2023-03-29T11:56:39.359Z,100164.38
2023-03-29T11:59:22.174Z,100149.38
2023-03-29T12:01:56.445Z,100155.34
2023-03-29T12:04:33.869Z,100154.88
2023-03-29T12:07:11.994Z,100158.41
2023-03-29T12:09:56.147Z,100150.19
2023-03-29T12:12:48.703Z,100134.59
2023-03-29T12:15:22.900Z,100134.56
2023-03-29T12:17:59.073Z,100119.28
2023-03-29T12:20:31.164Z,100121.19
2023-03-29T12:22:58.896Z,100118.44
2023-03-29T12:25:31.597Z,100104.16
2023-03-29T12:28:05.579Z,100118.09
2023-03-29T12:30:40.803Z,100127.59
2023-03-29T12:33:29.108Z,100120.97
2023-03-29T12:36:07.623Z,100130.00
2023-03-29T12:38:34.694Z,100111.09
2023-03-29T12:41:08.855Z,100110.28
2023-03-29T12:43:43.378Z,100114.38
2023-03-29T12:46:25.628Z,100104.78
2023-03-29T12:48:57.976Z,100108.88
2023-03-29T12:51:32.280Z,100113.13
2023-03-29T12:54:21.896Z,100107.22
2023-03-29T12:57:01.080Z,100101.28
2023-03-29T12:59:43.580Z,100104.25
2023-03-29T13:02:13.658Z,100097.47
2023-03-29T13:04:43.429Z,100103.84
2023-03-29T13:07:27.372Z,100080.81
2023-03-29T13:10:10.463Z,100086.63
2023-03-29T13:12:43.045Z,100076.63
2023-03-29T13:15:16.619Z,100086.34
2023-03-29T13:18:15.363Z,100075.06
2023-03-29T13:20:58.711Z,100067.13
2023-03-29T13:23:51.794Z,100066.97
2023-03-29T13:26:29.230Z,100068.00
2023-03-29T13:29:07.272Z,100059.00
2023-03-29T13:31:59.993Z,100063.91
2023-03-29T13:34:35.282Z,100065.72
2023-03-29T13:37:04.661Z,100057.69
2023-03-29T13:39:36.568Z,100049.25
2023-03-29T13:42:19.628Z,100053.56
2023-03-29T13:44:49.084Z,100054.38
2023-03-29T13:47:36.446Z,100040.28
2023-03-29T13:50:16.501Z,100028.69
2023-03-29T13:52:58.726Z,100020.53
2023-03-29T13:55:30.942Z,100018.81
2023-03-29T13:58:07.166Z,100013.44
2023-03-29T14:00:46.076Z,100011.44
2023-03-29T14:03:15.451Z,100006.44
2023-03-29T14:05:47.926Z,100016.53
2023-03-29T14:08:26.092Z,100011.03
2023-03-29T14:10:53.968Z,100012.00
2023-03-29T14:13:25.103Z,100019.91
2023-03-29T14:16:02.852Z,100012.84
2023-03-29T14:18:36.696Z,100009.41
2023-03-29T14:21:03.832Z,100000.63
2023-03-29T14:23:37.845Z,100002.06
2023-03-29T14:26:08.154Z,99999.47
2023-03-29T14:28:34.612Z,100003.06
2023-03-29T14:31:01.017Z,99989.31
2023-03-29T14:33:34.572Z,99972.63
2023-03-29T14:36:04.043Z,99965.72
2023-03-29T14:38:32.185Z,99969.97
2023-03-29T14:41:00.376Z,99964.69
2023-03-29T14:43:31.203Z,99952.69
2023-03-29T14:45:58.394Z,99968.25
2023-03-29T14:48:25.737Z,99956.59
2023-03-29T14:50:52.598Z,99959.50
2023-03-29T14:53:22.049Z,99945.34
2023-03-29T14:55:52.196Z,99956.91
2023-03-29T14:58:31.790Z,99949.63
2023-03-29T15:01:05.276Z,99934.56
2023-03-29T15:03:43.402Z,99934.72
2023-03-29T15:06:12.113Z,99928.13
2023-03-29T15:08:44.098Z,99918.50
2023-03-29T15:11:28.964Z,99917.25
2023-03-29T15:14:02.512Z,99919.41
2023-03-29T15:16:30.406Z,99909.16
2023-03-29T15:18:58.000Z,99919.47
2023-03-29T15:21:31.182Z,99933.25
2023-03-29T15:24:00.456Z,99923.53
2023-03-29T15:26:33.925Z,99925.81
2023-03-29T15:29:10.710Z,99926.59
2023-03-29T15:31:39.666Z,99898.00
2023-03-29T15:34:25.568Z,99916.56
2023-03-29T15:36:52.365Z,99919.81
2023-03-29T15:39:19.932Z,99918.03
2023-03-29T15:41:48.928Z,99924.31
2023-03-29T15:44:19.795Z,99930.03
2023-03-29T15:46:46.582Z,99915.56
2023-03-29T15:49:14.141Z,99914.88
2023-03-29T15:51:41.192Z,99915.50
2023-03-29T15:54:07.875Z,99924.75
2023-03-29T15:56:37.670Z,99917.25
2023-03-29T15:59:04.422Z,99929.16
2023-03-29T16:01:34.433Z,99924.22
2023-03-29T16:04:14.115Z,99923.44
2023-03-29T16:06:41.223Z,99926.22
2023-03-29T16:09:08.715Z,99923.03
2023-03-29T16:11:35.263Z,99922.41
2023-03-29T16:14:01.704Z,99896.25
2023-03-29T16:16:28.122Z,99917.06
2023-03-29T16:18:54.459Z,99904.88
2023-03-29T16:21:22.185Z,99900.56
2023-03-29T16:23:48.545Z,99908.44
2023-03-29T16:26:16.595Z,99885.38
2023-03-29T16:28:43.318Z,99906.88
2023-03-29T16:31:11.761Z,99892.72
2023-03-29T16:33:38.576Z,99901.53
2023-03-29T16:36:05.566Z,99900.56
2023-03-29T16:38:33.701Z,99903.25
2023-03-29T16:41:00.457Z,99893.84
2023-03-29T16:43:27.013Z,99898.34
2023-03-29T16:45:53.456Z,99898.41
2023-03-29T16:48:19.910Z,99884.25
2023-03-29T16:50:49.777Z,99885.19
2023-03-29T16:53:18.418Z,99888.19
2023-03-29T16:55:48.348Z,99878.97
2023-03-29T16:58:15.286Z,99850.63
2023-03-29T17:00:43.396Z,99875.88
2023-03-29T17:03:10.860Z,99868.31
2023-03-29T17:05:41.258Z,99873.25
2023-03-29T17:08:09.917Z,99865.56
2023-03-29T17:10:36.502Z,99870.16
2023-03-29T17:13:02.855Z,99873.16
2023-03-29T17:15:29.394Z,99868.78
2023-03-29T17:17:55.690Z,99868.78
2023-03-29T17:20:22.065Z,99862.91
2023-03-29T17:22:51.984Z,99848.19
2023-03-29T17:25:18.546Z,99857.00
2023-03-29T17:27:46.028Z,99863.22
2023-03-29T17:30:12.732Z,99848.38
2023-03-29T17:32:41.263Z,99868.97
2023-03-29T17:35:09.336Z,99852.69
2023-03-29T17:37:36.315Z,99866.06
2023-03-29T17:40:13.835Z,99858.38
2023-03-29T17:42:41.446Z,99850.59
2023-03-29T17:45:10.176Z,99846.44
2023-03-29T17:47:37.752Z,99849.34
2023-03-29T17:50:06.058Z,99855.88
2023-03-29T17:52:32.415Z,99861.41
2023-03-29T17:54:58.844Z,99845.03
2023-03-29T17:57:25.257Z,99854.09
2023-03-29T17:59:51.672Z,99849.16
2023-03-29T18:02:21.259Z,99840.44
2023-03-29T18:04:48.337Z,99847.00
2023-03-29T18:07:14.916Z,99840.44
2023-03-29T18:09:41.191Z,99841.28
2023-03-29T18:12:08.191Z,99838.06
2023-03-29T18:14:35.096Z,99847.06
2023-03-29T18:17:02.450Z,99847.31
2023-03-29T18:19:28.859Z,99846.69
2023-03-29T18:21:56.141Z,99847.63
2023-03-29T18:24:22.454Z,99852.34
2023-03-29T18:26:48.797Z,99849.66
2023-03-29T18:29:15.457Z,99862.00
2023-03-29T18:31:42.687Z,99855.31
2023-03-29T18:34:09.090Z,99859.56
2023-03-29T18:36:35.440Z,99853.38
2023-03-29T18:39:05.617Z,99842.06
2023-03-29T18:41:34.476Z,99840.56
2023-03-29T18:44:00.896Z,99854.06
2023-03-29T18:46:30.391Z,99847.13
2023-03-29T18:48:58.074Z,99844.56
2023-03-29T18:51:26.008Z,99834.31
2023-03-29T18:53:52.776Z,99835.22
2023-03-29T18:56:19.043Z,99837.72
2023-03-29T18:58:46.195Z,99841.16
2023-03-29T19:01:14.040Z,99831.34
2023-03-29T19:03:40.829Z,99822.41
2023-03-29T19:06:07.875Z,99817.06
2023-03-29T19:08:36.569Z,99821.69
2023-03-29T19:11:05.796Z,99824.53
2023-03-29T19:13:32.131Z,99820.19
2023-03-29T19:15:58.770Z,99815.94
2023-03-29T19:18:25.870Z,99825.75
2023-03-29T19:20:54.028Z,99818.59
2023-03-29T19:23:21.806Z,99824.72
2023-03-29T19:25:58.649Z,99804.47
2023-03-29T19:28:25.850Z,99813.97
2023-03-29T19:30:52.782Z,99803.00
2023-03-29T19:33:19.982Z,99788.38
2023-03-29T19:35:46.629Z,99795.78
2023-03-29T19:38:13.048Z,99799.00
2023-03-29T19:40:39.404Z,99795.16
2023-03-29T19:43:05.854Z,99787.88
2023-03-29T19:45:32.136Z,99785.09
2023-03-29T19:48:02.962Z,99795.59
2023-03-29T19:50:31.492Z,99783.78
2023-03-29T19:52:58.397Z,99772.00
2023-03-29T19:55:25.369Z,99763.84
2023-03-29T19:57:52.277Z,99752.19
2023-03-29T20:00:19.023Z,99745.22
2023-03-29T20:02:45.341Z,99741.38
2023-03-29T20:05:12.461Z,99708.59
2023-03-29T20:07:38.796Z,99734.59
2023-03-29T20:10:05.737Z,99726.84
2023-03-29T20:12:32.025Z,99731.09
2023-03-29T20:14:58.324Z,99722.13
2023-03-29T20:17:24.745Z,99723.69
2023-03-29T20:19:51.119Z,99711.09
2023-03-29T20:22:18.806Z,99687.56
2023-03-29T20:24:45.525Z,99688.50
2023-03-29T20:27:12.184Z,99698.31
2023-03-29T20:29:38.540Z,99693.16
2023-03-29T20:32:05.035Z,99703.06
2023-03-29T20:34:31.440Z,99701.31
2023-03-29T20:37:00.765Z,99690.75
2023-03-29T20:39:29.499Z,99695.13
2023-03-29T20:41:55.817Z,99691.09
2023-03-29T20:44:26.115Z,99693.50
2023-03-29T20:47:03.226Z,99694.91
2023-03-29T20:49:37.586Z,99684.41
2023-03-29T20:52:10.666Z,99676.91
2023-03-29T20:54:37.289Z,99679.16
2023-03-29T20:57:05.027Z,99672.78
2023-03-29T20:59:31.476Z,99665.28
2023-03-29T21:01:58.306Z,99670.53
2023-03-29T21:04:24.824Z,99661.56
2023-03-29T21:06:51.314Z,99665.53
2023-03-29T21:09:22.304Z,99661.88
2023-03-29T21:11:49.384Z,99660.09
2023-03-29T21:14:19.587Z,99657.41
2023-03-29T21:16:47.242Z,99658.84
2023-03-29T21:19:14.828Z,99657.22
2023-03-29T21:21:42.719Z,99648.06
2023-03-29T21:24:10.773Z,99651.78
2023-03-29T21:26:37.183Z,99648.25
2023-03-29T21:29:03.607Z,99645.66
2023-03-29T21:31:30.131Z,99639.47
2023-03-29T21:33:56.632Z,99638.34
2023-03-29T21:36:23.556Z,99639.09
2023-03-29T21:38:50.709Z,99632.78
2023-03-29T21:41:17.606Z,99635.38
2023-03-29T21:43:44.500Z,99613.66
2023-03-29T21:46:11.756Z,99625.59
2023-03-29T21:48:38.379Z,99625.59
2023-03-29T21:51:05.287Z,99612.81
2023-03-29T21:53:31.838Z,99609.63
2023-03-29T21:55:58.201Z,99618.09
2023-03-29T21:58:24.566Z,99612.31
2023-03-29T22:00:51.366Z,99604.63
2023-03-29T22:03:17.894Z,99619.75
2023-03-29T22:05:55.328Z,99612.41
2023-03-29T22:08:26.065Z,99621.19
2023-03-29T22:10:57.300Z,99617.81
2023-03-29T22:13:25.363Z,99611.19
2023-03-29T22:15:56.104Z,99610.69
2023-03-29T22:18:22.500Z,99603.00
2023-03-29T22:20:48.976Z,99602.22
2023-03-29T22:23:15.527Z,99592.16
2023-03-29T22:25:41.792Z,99592.31
2023-03-29T22:28:08.136Z,99598.78
2023-03-29T22:30:34.501Z,99602.06
2023-03-29T22:33:00.929Z,99591.03
2023-03-29T22:35:27.302Z,99600.25
2023-03-29T22:37:53.611Z,99595.34
2023-03-29T22:40:19.917Z,99586.97
2023-03-29T22:42:46.251Z,99579.47
2023-03-29T22:45:12.600Z,99585.50
2023-03-29T22:47:38.956Z,99594.16
2023-03-29T22:50:07.078Z,99596.53
2023-03-29T22:52:33.389Z,99586.91
2023-03-29T22:54:59.697Z,99597.72
2023-03-29T22:57:26.076Z,99595.53
2023-03-29T22:59:52.379Z,99606.47
2023-03-29T23:02:18.787Z,99597.72
2023-03-29T23:04:45.542Z,99594.75
2023-03-29T23:07:12.159Z,99593.69
2023-03-29T23:09:38.495Z,99593.69
2023-03-29T23:12:05.512Z,99598.97
2023-03-29T23:14:33.671Z,99600.50
2023-03-29T23:17:00.210Z,99582.03
2023-03-29T23:19:26.992Z,99595.53
2023-03-29T23:21:53.328Z,99584.03
2023-03-29T23:24:19.666Z,99588.72
2023-03-29T23:26:48.896Z,99572.16
2023-03-29T23:29:15.378Z,99576.00
2023-03-29T23:31:41.903Z,99566.06
2023-03-29T23:34:09.102Z,99560.81
2023-03-29T23:36:35.503Z,99543.09
2023-03-29T23:39:01.901Z,99535.06
2023-03-29T23:41:30.395Z,99539.38
2023-03-29T23:43:57.571Z,99533.53
2023-03-29T23:46:24.510Z,99529.44
2023-03-29T23:48:50.987Z,99517.88
2023-03-29T23:51:18.673Z,99539.66
2023-03-29T23:53:44.985Z,99536.22
2023-03-29T23:56:11.761Z,99529.13
2023-03-29T23:58:38.125Z,99530.66
